Terminal Aerodrome Forecast
Issued by NWS Charleston, WV

Current Version | Previous Version | Graphics & Text | Print | Product List | Glossary On
Versions: 1 2 3 4 5 6 7 8 9 10 11 12 13 14 15 16 17 18 19 20 21 22 23 24 25 26
559
FTUS41 KRLX 261542 AAA
TAFCRW
TAF AMD
KCRW 261542Z 2616/2712 VRB03KT P6SM BKN060
     FM261900 24009KT P6SM VCTS BKN040CB
      TEMPO 2620/2621 2SM SHRA OVC025
     FM262100 29009KT 4SM SHRA OVC040
     FM270000 30008KT P6SM OVC025
     FM270200 28004KT P6SM SCT020
     FM270800 00000KT 6SM BR SCT025=

USA.gov is the U.S. government's official web portal to all federal, state and local government web resources and services.